sensor_id;sensor_type;location;lat;lon;timestamp;pressure;altitude;pressure_sealevel;temperature;humidity
14295;BME280;7231;59.370;18.016;2023-02-20T00:01:12;100412.50;;;-1.76;61.16
14295;BME280;7231;59.370;18.016;2023-02-20T00:03:40;100411.63;;;-1.77;61.27
14295;BME280;7231;59.370;18.016;2023-02-20T00:06:10;100413.41;;;-1.76;61.18
14295;BME280;7231;59.370;18.016;2023-02-20T00:08:39;100392.84;;;-1.76;61.26
14295;BME280;7231;59.370;18.016;2023-02-20T00:11:07;100385.91;;;-1.77;61.07
14295;BME280;7231;59.370;18.016;2023-02-20T00:13:35;100385.13;;;-1.76;61.29
14295;BME280;7231;59.370;18.016;2023-02-20T00:16:05;100363.97;;;-1.97;61.28
14295;BME280;7231;59.370;18.016;2023-02-20T00:18:33;100320.91;;;-2.12;61.32
14295;BME280;7231;59.370;18.016;2023-02-20T00:21:01;100368.59;;;-1.79;61.38
14295;BME280;7231;59.370;18.016;2023-02-20T00:23:31;100255.69;;;-2.39;61.47
14295;BME280;7231;59.370;18.016;2023-02-20T00:25:59;100261.94;;;-2.36;60.95
14295;BME280;7231;59.370;18.016;2023-02-20T00:28:27;100356.53;;;-1.80;61.25
14295;BME280;7231;59.370;18.016;2023-02-20T00:30:56;100369.38;;;-1.80;61.24
14295;BME280;7231;59.370;18.016;2023-02-20T00:33:25;100362.56;;;-1.80;61.47
14295;BME280;7231;59.370;18.016;2023-02-20T00:35:53;100373.63;;;-1.81;61.51
14295;BME280;7231;59.370;18.016;2023-02-20T00:38:21;100375.31;;;-1.81;61.60
14295;BME280;7231;59.370;18.016;2023-02-20T00:40:49;100370.06;;;-1.83;61.47
14295;BME280;7231;59.370;18.016;2023-02-20T00:43:17;100320.97;;;-1.99;61.50
14295;BME280;7231;59.370;18.016;2023-02-20T00:45:45;100351.88;;;-1.86;61.67
14295;BME280;7231;59.370;18.016;2023-02-20T00:48:13;100342.38;;;-1.87;61.81
14295;BME280;7231;59.370;18.016;2023-02-20T00:50:42;100332.09;;;-1.87;62.17
14295;BME280;7231;59.370;18.016;2023-02-20T00:53:10;100321.81;;;-1.87;62.03
14295;BME280;7231;59.370;18.016;2023-02-20T00:55:38;100321.81;;;-1.87;62.08
14295;BME280;7231;59.370;18.016;2023-02-20T00:58:06;100317.47;;;-1.88;62.08
14295;BME280;7231;59.370;18.016;2023-02-20T01:00:34;100318.25;;;-1.89;62.28
14295;BME280;7231;59.370;18.016;2023-02-20T01:03:01;100312.34;;;-1.88;62.27
14295;BME280;7231;59.370;18.016;2023-02-20T01:05:30;100314.91;;;-1.88;62.44
14295;BME280;7231;59.370;18.016;2023-02-20T01:07:59;100286.00;;;-1.97;62.22
14295;BME280;7231;59.370;18.016;2023-02-20T01:10:27;100304.84;;;-1.85;62.22
14295;BME280;7231;59.370;18.016;2023-02-20T01:12:55;100250.63;;;-2.01;62.29
14295;BME280;7231;59.370;18.016;2023-02-20T01:15:23;100277.34;;;-1.86;62.17
14295;BME280;7231;59.370;18.016;2023-02-20T01:17:51;100285.06;;;-1.86;62.16
14295;BME280;7231;59.370;18.016;2023-02-20T01:20:19;100233.81;;;-2.09;62.44
14295;BME280;7231;59.370;18.016;2023-02-20T01:22:47;100266.88;;;-1.89;62.60
14295;BME280;7231;59.370;18.016;2023-02-20T01:25:16;100266.09;;;-1.88;62.50
14295;BME280;7231;59.370;18.016;2023-02-20T01:27:44;100245.81;;;-1.97;62.38
14295;BME280;7231;59.370;18.016;2023-02-20T01:30:13;100253.25;;;-1.88;62.72
14295;BME280;7231;59.370;18.016;2023-02-20T01:32:41;100262.63;;;-1.88;62.64
14295;BME280;7231;59.370;18.016;2023-02-20T01:35:09;100254.13;;;-1.87;62.79
14295;BME280;7231;59.370;18.016;2023-02-20T01:37:37;100201.31;;;-2.09;62.81
14295;BME280;7231;59.370;18.016;2023-02-20T01:40:07;100238.81;;;-1.86;62.81
14295;BME280;7231;59.370;18.016;2023-02-20T01:42:36;100244.84;;;-1.85;62.79
14295;BME280;7231;59.370;18.016;2023-02-20T01:45:15;100114.56;;;-2.51;62.64
14295;BME280;7231;59.370;18.016;2023-02-20T01:47:44;100216.59;;;-1.85;62.66
14295;BME280;7231;59.370;18.016;2023-02-20T01:50:13;100162.69;;;-2.10;62.95
14295;BME280;7231;59.370;18.016;2023-02-20T01:52:42;100194.44;;;-1.83;62.88
14295;BME280;7231;59.370;18.016;2023-02-20T01:55:13;100192.78;;;-1.83;63.03
14295;BME280;7231;59.370;18.016;2023-02-20T01:57:48;100186.84;;;-1.82;62.92
14295;BME280;7231;59.370;18.016;2023-02-20T02:00:20;100189.53;;;-1.80;62.91
14295;BME280;7231;59.370;18.016;2023-02-20T02:02:52;100188.63;;;-1.81;62.90
14295;BME280;7231;59.370;18.016;2023-02-20T02:05:22;100172.41;;;-1.80;62.77
14295;BME280;7231;59.370;18.016;2023-02-20T02:07:51;100172.53;;;-1.78;62.66
14295;BME280;7231;59.370;18.016;2023-02-20T02:10:23;100155.03;;;-1.84;62.92
14295;BME280;7231;59.370;18.016;2023-02-20T02:12:53;100146.94;;;-1.77;63.05
14295;BME280;7231;59.370;18.016;2023-02-20T02:15:22;100136.75;;;-1.75;62.81
14295;BME280;7231;59.370;18.016;2023-02-20T02:21:02;100100.56;;;-1.78;62.94
14295;BME280;7231;59.370;18.016;2023-02-20T02:24:09;100101.06;;;-1.71;62.85
14295;BME280;7231;59.370;18.016;2023-02-20T02:27:04;100104.63;;;-1.69;62.92
14295;BME280;7231;59.370;18.016;2023-02-20T02:29:48;100098.59;;;-1.69;62.91
14295;BME280;7231;59.370;18.016;2023-02-20T02:32:44;100092.66;;;-1.68;62.81
14295;BME280;7231;59.370;18.016;2023-02-20T02:35:48;100086.63;;;-1.69;62.77
14295;BME280;7231;59.370;18.016;2023-02-20T02:38:24;100078.94;;;-1.69;62.45
14295;BME280;7231;59.370;18.016;2023-02-20T02:41:00;100064.31;;;-1.70;62.65
14295;BME280;7231;59.370;18.016;2023-02-20T02:43:40;100024.00;;;-1.84;62.74
14295;BME280;7231;59.370;18.016;2023-02-20T02:46:15;99961.28;;;-2.14;62.30
14295;BME280;7231;59.370;18.016;2023-02-20T02:48:53;100032.78;;;-1.67;62.31
14295;BME280;7231;59.370;18.016;2023-02-20T02:51:29;100032.78;;;-1.67;62.41
14295;BME280;7231;59.370;18.016;2023-02-20T02:54:10;100018.66;;;-1.74;62.27
14295;BME280;7231;59.370;18.016;2023-02-20T02:56:41;100028.50;;;-1.67;62.37
14295;BME280;7231;59.370;18.016;2023-02-20T02:59:13;100021.59;;;-1.68;62.37
14295;BME280;7231;59.370;18.016;2023-02-20T03:01:46;100012.13;;;-1.82;62.13
14295;BME280;7231;59.370;18.016;2023-02-20T03:04:15;100034.34;;;-1.69;62.36
14295;BME280;7231;59.370;18.016;2023-02-20T03:06:52;100029.22;;;-1.69;62.00
14295;BME280;7231;59.370;18.016;2023-02-20T03:09:25;100033.47;;;-1.70;62.07
14295;BME280;7231;59.370;18.016;2023-02-20T03:11:57;99998.31;;;-1.84;62.20
14295;BME280;7231;59.370;18.016;2023-02-20T03:14:30;100021.59;;;-1.68;62.15
14295;BME280;7231;59.370;18.016;2023-02-20T03:17:21;100002.91;;;-1.65;62.21
14295;BME280;7231;59.370;18.016;2023-02-20T03:19:54;99999.97;;;-1.71;62.09
14295;BME280;7231;59.370;18.016;2023-02-20T03:22:28;100001.22;;;-1.65;61.91
14295;BME280;7231;59.370;18.016;2023-02-20T03:25:00;99999.56;;;-1.64;62.01
14295;BME280;7231;59.370;18.016;2023-02-20T03:27:37;99993.72;;;-1.61;61.67
14295;BME280;7231;59.370;18.016;2023-02-20T03:30:10;99994.59;;;-1.61;61.76
14295;BME280;7231;59.370;18.016;2023-02-20T03:32:40;99996.19;;;-1.63;61.65
14295;BME280;7231;59.370;18.016;2023-02-20T03:35:29;99984.41;;;-1.59;61.92
14295;BME280;7231;59.370;18.016;2023-02-20T03:38:20;99970.38;;;-1.65;61.53
14295;BME280;7231;59.370;18.016;2023-02-20T03:41:09;99968.19;;;-1.58;61.52
14295;BME280;7231;59.370;18.016;2023-02-20T03:43:58;99962.25;;;-1.57;61.51
14295;BME280;7231;59.370;18.016;2023-02-20T03:46:31;99951.19;;;-1.56;61.74
14295;BME280;7231;59.370;18.016;2023-02-20T03:49:03;99945.34;;;-1.54;61.49
14295;BME280;7231;59.370;18.016;2023-02-20T03:51:33;99935.97;;;-1.53;61.66
14295;BME280;7231;59.370;18.016;2023-02-20T03:54:03;99925.75;;;-1.52;61.65
14295;BME280;7231;59.370;18.016;2023-02-20T03:56:34;99909.63;;;-1.49;61.46
14295;BME280;7231;59.370;18.016;2023-02-20T03:59:08;99892.63;;;-1.47;61.31
14295;BME280;7231;59.370;18.016;2023-02-20T04:01:40;99897.06;;;-1.45;61.84
14295;BME280;7231;59.370;18.016;2023-02-20T04:04:13;99874.03;;;-1.43;61.51
14295;BME280;7231;59.370;18.016;2023-02-20T04:06:44;99869.75;;;-1.43;61.58
14295;BME280;7231;59.370;18.016;2023-02-20T04:09:18;99857.34;;;-1.50;61.42
14295;BME280;7231;59.370;18.016;2023-02-20T04:11:49;99846.00;;;-1.39;61.19
14295;BME280;7231;59.370;18.016;2023-02-20T04:14:21;99825.53;;;-1.37;61.40
14295;BME280;7231;59.370;18.016;2023-02-20T04:16:54;99806.84;;;-1.35;61.20
14295;BME280;7231;59.370;18.016;2023-02-20T04:19:23;99803.56;;;-1.32;61.02
14295;BME280;7231;59.370;18.016;2023-02-20T04:21:53;99781.47;;;-1.43;61.00
14295;BME280;7231;59.370;18.016;2023-02-20T04:24:27;99789.28;;;-1.27;60.93
14295;BME280;7231;59.370;18.016;2023-02-20T04:26:56;99786.09;;;-1.23;61.02
14295;BME280;7231;59.370;18.016;2023-02-20T04:29:25;99768.16;;;-1.21;60.72
14295;BME280;7231;59.370;18.016;2023-02-20T04:31:53;99755.47;;;-1.18;60.81
14295;BME280;7231;59.370;18.016;2023-02-20T04:34:21;99731.81;;;-1.27;60.66
14295;BME280;7231;59.370;18.016;2023-02-20T04:36:50;99742.72;;;-1.17;60.48
14295;BME280;7231;59.370;18.016;2023-02-20T04:39:20;99740.13;;;-1.17;60.36
14295;BME280;7231;59.370;18.016;2023-02-20T04:41:50;99717.06;;;-1.15;60.18
14295;BME280;7231;59.370;18.016;2023-02-20T04:44:18;99537.50;;;-2.15;60.32
14295;BME280;7231;59.370;18.016;2023-02-20T04:46:58;99725.06;;;-1.11;60.26
14295;BME280;7231;59.370;18.016;2023-02-20T04:49:33;99710.69;;;-1.07;60.14
14295;BME280;7231;59.370;18.016;2023-02-20T04:52:01;99696.13;;;-1.07;60.19
14295;BME280;7231;59.370;18.016;2023-02-20T04:54:29;99694.59;;;-1.03;60.12
14295;BME280;7231;59.370;18.016;2023-02-20T04:56:57;99686.97;;;-1.02;59.92
14295;BME280;7231;59.370;18.016;2023-02-20T04:59:25;99687.94;;;-1.00;59.81
14295;BME280;7231;59.370;18.016;2023-02-20T05:01:53;99664.06;;;-0.97;59.59
14295;BME280;7231;59.370;18.016;2023-02-20T05:04:22;99647.84;;;-0.96;59.77
14295;BME280;7231;59.370;18.016;2023-02-20T05:06:52;99635.06;;;-0.94;59.53
14295;BME280;7231;59.370;18.016;2023-02-20T05:09:21;99633.44;;;-0.92;59.67
14295;BME280;7231;59.370;18.016;2023-02-20T05:11:49;99609.56;;;-0.90;59.65
14295;BME280;7231;59.370;18.016;2023-02-20T05:14:18;99556.81;;;-1.14;59.67
14295;BME280;7231;59.370;18.016;2023-02-20T05:16:46;99575.00;;;-0.95;59.23
14295;BME280;7231;59.370;18.016;2023-02-20T05:19:14;99580.78;;;-0.83;59.28
14295;BME280;7231;59.370;18.016;2023-02-20T05:21:42;99515.03;;;-1.10;58.90
14295;BME280;7231;59.370;18.016;2023-02-20T05:24:30;99541.78;;;-0.90;59.17
14295;BME280;7231;59.370;18.016;2023-02-20T05:26:59;99438.28;;;-1.35;59.15
14295;BME280;7231;59.370;18.016;2023-02-20T05:29:27;99531.50;;;-0.74;59.25
14295;BME280;7231;59.370;18.016;2023-02-20T05:31:54;99529.06;;;-0.71;59.19
14295;BME280;7231;59.370;18.016;2023-02-20T05:34:22;99500.47;;;-0.77;59.55
14295;BME280;7231;59.370;18.016;2023-02-20T05:36:51;99498.03;;;-0.74;59.54
14295;BME280;7231;59.370;18.016;2023-02-20T05:39:19;99433.78;;;-1.07;60.28
14295;BME280;7231;59.370;18.016;2023-02-20T05:41:49;99485.03;;;-0.77;61.07
14295;BME280;7231;59.370;18.016;2023-02-20T05:44:16;99472.88;;;-0.80;61.53
14295;BME280;7231;59.370;18.016;2023-02-20T05:46:44;99448.59;;;-0.85;61.96
14295;BME280;7231;59.370;18.016;2023-02-20T05:49:13;99444.44;;;-0.99;62.86
14295;BME280;7231;59.370;18.016;2023-02-20T05:51:40;99441.06;;;-0.98;63.34
14295;BME280;7231;59.370;18.016;2023-02-20T05:54:08;99432.31;;;-1.02;64.08
14295;BME280;7231;59.370;18.016;2023-02-20T05:56:40;99408.06;;;-1.07;64.88
14295;BME280;7231;59.370;18.016;2023-02-20T05:59:09;99394.88;;;-1.13;65.31
14295;BME280;7231;59.370;18.016;2023-02-20T06:01:37;99389.59;;;-1.16;66.03
14295;BME280;7231;59.370;18.016;2023-02-20T06:04:05;99392.81;;;-1.20;66.60
14295;BME280;7231;59.370;18.016;2023-02-20T06:06:38;99362.66;;;-1.22;66.91
14295;BME280;7231;59.370;18.016;2023-02-20T06:09:09;99363.41;;;-1.25;67.71
14295;BME280;7231;59.370;18.016;2023-02-20T06:11:37;99332.72;;;-1.38;68.38
14295;BME280;7231;59.370;18.016;2023-02-20T06:14:06;99323.03;;;-1.44;68.91
14295;BME280;7231;59.370;18.016;2023-02-20T06:16:35;99327.75;;;-1.35;69.56
14295;BME280;7231;59.370;18.016;2023-02-20T06:19:03;99303.56;;;-1.39;70.24
14295;BME280;7231;59.370;18.016;2023-02-20T06:21:32;99307.84;;;-1.39;71.03
14295;BME280;7231;59.370;18.016;2023-02-20T06:24:01;99285.44;;;-1.42;71.32
14295;BME280;7231;59.370;18.016;2023-02-20T06:26:29;99291.44;;;-1.41;71.64
14295;BME280;7231;59.370;18.016;2023-02-20T06:28:57;99256.63;;;-1.52;72.09
14295;BME280;7231;59.370;18.016;2023-02-20T06:31:26;99265.00;;;-1.39;72.49
14295;BME280;7231;59.370;18.016;2023-02-20T06:33:56;99253.03;;;-1.38;72.71
14295;BME280;7231;59.370;18.016;2023-02-20T06:36:26;99165.53;;;-1.75;73.57
14295;BME280;7231;59.370;18.016;2023-02-20T06:38:54;99216.19;;;-1.39;74.18
14295;BME280;7231;59.370;18.016;2023-02-20T06:41:24;99200.81;;;-1.37;74.63
14295;BME280;7231;59.370;18.016;2023-02-20T06:43:52;99183.88;;;-1.34;74.97
14295;BME280;7231;59.370;18.016;2023-02-20T06:46:21;99156.91;;;-1.42;75.28
14295;BME280;7231;59.370;18.016;2023-02-20T06:48:51;99159.25;;;-1.28;75.82
14295;BME280;7231;59.370;18.016;2023-02-20T06:51:23;99158.59;;;-1.24;75.92
14295;BME280;7231;59.370;18.016;2023-02-20T06:53:51;99127.06;;;-1.20;76.32
14295;BME280;7231;59.370;18.016;2023-02-20T06:56:22;99097.41;;;-1.32;77.26
14295;BME280;7231;59.370;18.016;2023-02-20T06:58:51;99098.25;;;-1.13;77.21
14295;BME280;7231;59.370;18.016;2023-02-20T07:01:21;99081.34;;;-1.08;77.48
14295;BME280;7231;59.370;18.016;2023-02-20T07:03:49;99077.28;;;-1.03;78.28
14295;BME280;7231;59.370;18.016;2023-02-20T07:06:18;99050.84;;;-1.01;78.63
14295;BME280;7231;59.370;18.016;2023-02-20T07:08:48;99030.13;;;-1.04;79.44
14295;BME280;7231;59.370;18.016;2023-02-20T07:11:17;99044.59;;;-0.86;79.91
14295;BME280;7231;59.370;18.016;2023-02-20T07:13:45;99037.16;;;-0.80;80.63
14295;BME280;7231;59.370;18.016;2023-02-20T07:16:14;99027.13;;;-0.74;80.82
14295;BME280;7231;59.370;18.016;2023-02-20T07:18:42;99011.06;;;-0.69;81.09
14295;BME280;7231;59.370;18.016;2023-02-20T07:21:10;98982.50;;;-0.75;81.43
14295;BME280;7231;59.370;18.016;2023-02-20T07:23:38;98979.91;;;-0.55;81.78
14295;BME280;7231;59.370;18.016;2023-02-20T07:26:16;98955.09;;;-0.53;82.14
14295;BME280;7231;59.370;18.016;2023-02-20T07:28:44;98930.38;;;-0.50;81.99
14295;BME280;7231;59.370;18.016;2023-02-20T07:31:12;98908.22;;;-0.46;82.53
14295;BME280;7231;59.370;18.016;2023-02-20T07:33:40;98914.91;;;-0.29;83.06
14295;BME280;7231;59.370;18.016;2023-02-20T07:36:09;98806.56;;;-0.78;83.40
14295;BME280;7231;59.370;18.016;2023-02-20T07:38:38;98872.44;;;-0.18;83.63
14295;BME280;7231;59.370;18.016;2023-02-20T07:41:10;98873.53;;;-0.11;83.99
14295;BME280;7231;59.370;18.016;2023-02-20T07:43:42;98854.88;;;-0.06;84.15
14295;BME280;7231;59.370;18.016;2023-02-20T07:46:09;98845.63;;;0.01;84.23
14295;BME280;7231;59.370;18.016;2023-02-20T07:48:38;98799.03;;;-0.07;84.60
14295;BME280;7231;59.370;18.016;2023-02-20T07:51:06;98821.16;;;0.12;84.85
14295;BME280;7231;59.370;18.016;2023-02-20T07:53:34;98797.25;;;0.16;85.37
14295;BME280;7231;59.370;18.016;2023-02-20T07:56:03;98786.28;;;0.22;85.46
14295;BME280;7231;59.370;18.016;2023-02-20T07:58:33;98783.88;;;0.26;86.20
14295;BME280;7231;59.370;18.016;2023-02-20T08:01:01;98763.47;;;0.32;86.72
14295;BME280;7231;59.370;18.016;2023-02-20T08:03:29;98753.44;;;0.40;86.69
14295;BME280;7231;59.370;18.016;2023-02-20T08:05:57;98735.53;;;0.45;86.50
14295;BME280;7231;59.370;18.016;2023-02-20T08:08:25;98721.09;;;0.50;87.46
14295;BME280;7231;59.370;18.016;2023-02-20T08:10:53;98699.81;;;0.55;87.88
14295;BME280;7231;59.370;18.016;2023-02-20T08:13:35;98674.50;;;0.44;87.65
14295;BME280;7231;59.370;18.016;2023-02-20T08:16:03;98678.59;;;0.64;87.87
14295;BME280;7231;59.370;18.016;2023-02-20T08:18:31;98658.06;;;0.67;88.72
14295;BME280;7231;59.370;18.016;2023-02-20T08:20:59;98600.06;;;0.27;89.30
14295;BME280;7231;59.370;18.016;2023-02-20T08:23:27;98635.06;;;0.73;89.71
14295;BME280;7231;59.370;18.016;2023-02-20T08:25:55;98625.75;;;0.78;89.57
14295;BME280;7231;59.370;18.016;2023-02-20T08:28:23;98620.69;;;0.81;89.63
14295;BME280;7231;59.370;18.016;2023-02-20T08:30:52;98625.13;;;0.85;90.72
14295;BME280;7231;59.370;18.016;2023-02-20T08:33:20;98574.00;;;0.72;90.77
14295;BME280;7231;59.370;18.016;2023-02-20T08:35:48;98597.84;;;0.93;90.40
14295;BME280;7231;59.370;18.016;2023-02-20T08:38:25;98585.91;;;0.97;90.57
14295;BME280;7231;59.370;18.016;2023-02-20T08:40:54;98565.97;;;0.91;91.43
14295;BME280;7231;59.370;18.016;2023-02-20T08:43:22;98566.16;;;0.97;91.37
14295;BME280;7231;59.370;18.016;2023-02-20T08:45:55;98548.00;;;0.94;91.02
14295;BME280;7231;59.370;18.016;2023-02-20T08:48:23;98527.38;;;0.94;91.89
14295;BME280;7231;59.370;18.016;2023-02-20T08:50:51;98483.38;;;0.60;91.99
14295;BME280;7231;59.370;18.016;2023-02-20T08:53:19;98499.47;;;0.81;91.96
14295;BME280;7231;59.370;18.016;2023-02-20T08:55:48;98503.22;;;0.92;92.60
14295;BME280;7231;59.370;18.016;2023-02-20T08:58:18;98493.84;;;0.94;92.92
14295;BME280;7231;59.370;18.016;2023-02-20T09:00:46;98492.09;;;0.93;93.24
14295;BME280;7231;59.370;18.016;2023-02-20T09:03:16;98478.34;;;0.94;92.57
14295;BME280;7231;59.370;18.016;2023-02-20T09:05:44;98472.34;;;0.95;93.03
14295;BME280;7231;59.370;18.016;2023-02-20T09:08:12;98461.97;;;0.92;93.39
14295;BME280;7231;59.370;18.016;2023-02-20T09:10:40;98439.19;;;0.78;93.29
14295;BME280;7231;59.370;18.016;2023-02-20T09:13:08;98443.81;;;0.89;92.92
14295;BME280;7231;59.370;18.016;2023-02-20T09:15:36;98425.63;;;0.85;93.24
14295;BME280;7231;59.370;18.016;2023-02-20T09:18:06;98384.47;;;0.58;93.48
14295;BME280;7231;59.370;18.016;2023-02-20T09:20:36;98404.91;;;0.82;93.22
14295;BME280;7231;59.370;18.016;2023-02-20T09:23:05;98395.38;;;0.79;93.47
14295;BME280;7231;59.370;18.016;2023-02-20T09:25:33;98376.41;;;0.77;94.25
14295;BME280;7231;59.370;18.016;2023-02-20T09:28:02;98358.31;;;0.76;94.15
14295;BME280;7231;59.370;18.016;2023-02-20T09:30:30;98343.72;;;0.76;94.46
14295;BME280;7231;59.370;18.016;2023-02-20T09:32:58;98296.78;;;0.56;94.79
14295;BME280;7231;59.370;18.016;2023-02-20T09:35:29;98324.84;;;0.77;94.40
14295;BME280;7231;59.370;18.016;2023-02-20T09:37:58;98307.66;;;0.78;94.73
14295;BME280;7231;59.370;18.016;2023-02-20T09:40:29;98305.09;;;0.78;94.52
14295;BME280;7231;59.370;18.016;2023-02-20T09:43:13;98284.47;;;0.78;95.24
14295;BME280;7231;59.370;18.016;2023-02-20T09:45:50;98274.94;;;0.75;95.03
14295;BME280;7231;59.370;18.016;2023-02-20T09:48:31;98249.75;;;0.65;95.43
14295;BME280;7231;59.370;18.016;2023-02-20T09:51:04;98261.22;;;0.76;95.44
14295;BME280;7231;59.370;18.016;2023-02-20T09:53:38;98245.63;;;0.72;95.74
14295;BME280;7231;59.370;18.016;2023-02-20T09:56:12;98217.50;;;0.48;95.51
14295;BME280;7231;59.370;18.016;2023-02-20T09:58:44;98247.56;;;0.80;95.29
14295;BME280;7231;59.370;18.016;2023-02-20T10:01:18;98239.84;;;0.82;96.08
14295;BME280;7231;59.370;18.016;2023-02-20T10:03:53;98227.78;;;0.81;95.97
14295;BME280;7231;59.370;18.016;2023-02-20T10:06:24;98188.97;;;0.75;96.21
14295;BME280;7231;59.370;18.016;2023-02-20T10:08:54;98188.94;;;0.73;95.77
14295;BME280;7231;59.370;18.016;2023-02-20T10:11:40;98177.78;;;0.74;96.96
14295;BME280;7231;59.370;18.016;2023-02-20T10:14:25;98189.53;;;0.99;97.03
14295;BME280;7231;59.370;18.016;2023-02-20T10:17:02;98187.16;;;1.08;97.13
14295;BME280;7231;59.370;18.016;2023-02-20T10:19:40;98176.97;;;1.13;97.32
14295;BME280;7231;59.370;18.016;2023-02-20T10:22:13;98046.50;;;0.46;97.22
14295;BME280;7231;59.370;18.016;2023-02-20T10:24:54;98151.38;;;1.23;98.09
14295;BME280;7231;59.370;18.016;2023-02-20T10:27:30;98157.72;;;1.38;98.45
14295;BME280;7231;59.370;18.016;2023-02-20T10:30:04;98091.84;;;1.14;98.52
14295;BME280;7231;59.370;18.016;2023-02-20T10:32:37;98072.00;;;1.12;98.85
14295;BME280;7231;59.370;18.016;2023-02-20T10:35:10;98112.25;;;1.44;99.07
14295;BME280;7231;59.370;18.016;2023-02-20T10:37:41;98103.84;;;1.54;99.38
14295;BME280;7231;59.370;18.016;2023-02-20T10:40:20;98053.47;;;1.31;99.34
14295;BME280;7231;59.370;18.016;2023-02-20T10:42:54;98072.91;;;1.57;99.30
14295;BME280;7231;59.370;18.016;2023-02-20T10:45:34;98088.63;;;1.68;99.61
14295;BME280;7231;59.370;18.016;2023-02-20T10:48:05;98076.59;;;1.70;99.94
14295;BME280;7231;59.370;18.016;2023-02-20T10:50:38;98063.72;;;1.72;99.80
14295;BME280;7231;59.370;18.016;2023-02-20T10:53:17;98049.84;;;1.67;100.00
14295;BME280;7231;59.370;18.016;2023-02-20T10:55:52;98049.84;;;1.67;100.00
14295;BME280;7231;59.370;18.016;2023-02-20T10:58:26;98039.56;;;1.70;100.00
14295;BME280;7231;59.370;18.016;2023-02-20T11:00:58;98041.44;;;1.77;100.00
14295;BME280;7231;59.370;18.016;2023-02-20T11:03:36;98025.13;;;1.81;100.00
14295;BME280;7231;59.370;18.016;2023-02-20T11:06:08;98018.38;;;1.89;100.00
14295;BME280;7231;59.370;18.016;2023-02-20T11:08:39;97977.63;;;1.71;100.00
14295;BME280;7231;59.370;18.016;2023-02-20T11:11:21;98016.78;;;1.95;100.00
14295;BME280;7231;59.370;18.016;2023-02-20T11:13:50;98014.94;;;1.88;100.00
14295;BME280;7231;59.370;18.016;2023-02-20T11:16:24;98002.88;;;1.89;100.00
14295;BME280;7231;59.370;18.016;2023-02-20T11:19:02;98006.34;;;1.89;100.00
14295;BME280;7231;59.370;18.016;2023-02-20T11:21:36;97971.72;;;1.78;100.00
14295;BME280;7231;59.370;18.016;2023-02-20T11:24:27;97988.31;;;1.92;100.00
14295;BME280;7231;59.370;18.016;2023-02-20T11:26:59;97983.16;;;1.94;100.00
14295;BME280;7231;59.370;18.016;2023-02-20T11:29:33;97962.41;;;1.88;100.00
14295;BME280;7231;59.370;18.016;2023-02-20T11:32:22;97899.03;;;1.55;100.00
14295;BME280;7231;59.370;18.016;2023-02-20T11:35:03;97974.66;;;2.01;100.00
14295;BME280;7231;59.370;18.016;2023-02-20T11:37:32;97970.38;;;2.03;100.00
14295;BME280;7231;59.370;18.016;2023-02-20T11:40:15;97966.97;;;2.04;100.00
14295;BME280;7231;59.370;18.016;2023-02-20T11:42:45;97962.72;;;2.08;100.00
14295;BME280;7231;59.370;18.016;2023-02-20T11:45:15;97942.97;;;2.13;100.00
14295;BME280;7231;59.370;18.016;2023-02-20T11:47:43;97933.47;;;2.12;100.00
14295;BME280;7231;59.370;18.016;2023-02-20T11:50:17;97917.94;;;2.09;100.00
14295;BME280;7231;59.370;18.016;2023-02-20T11:53:00;97933.00;;;2.39;100.00
14295;BME280;7231;59.370;18.016;2023-02-20T11:55:31;97943.44;;;2.46;100.00
14295;BME280;7231;59.370;18.016;2023-02-20T11:58:01;97947.88;;;2.55;100.00
14295;BME280;7231;59.370;18.016;2023-02-20T12:00:43;97941.03;;;2.61;100.00
14295;BME280;7231;59.370;18.016;2023-02-20T12:03:13;97934.19;;;2.65;100.00
14295;BME280;7231;59.370;18.016;2023-02-20T12:05:46;97927.22;;;2.58;100.00
14295;BME280;7231;59.370;18.016;2023-02-20T12:08:28;97939.47;;;2.74;100.00
14295;BME280;7231;59.370;18.016;2023-02-20T12:10:58;97944.69;;;2.77;100.00
14295;BME280;7231;59.370;18.016;2023-02-20T12:13:37;97934.41;;;2.83;100.00
14295;BME280;7231;59.370;18.016;2023-02-20T12:16:21;97928.31;;;2.78;100.00
14295;BME280;7231;59.370;18.016;2023-02-20T12:18:56;97955.19;;;2.91;100.00
14295;BME280;7231;59.370;18.016;2023-02-20T12:21:34;97927.50;;;2.82;100.00
14295;BME280;7231;59.370;18.016;2023-02-20T12:24:24;97950.16;;;3.02;100.00
14295;BME280;7231;59.370;18.016;2023-02-20T12:26:58;97957.13;;;3.07;100.00
14295;BME280;7231;59.370;18.016;2023-02-20T12:29:37;97952.84;;;3.11;100.00
14295;BME280;7231;59.370;18.016;2023-02-20T12:32:20;97939.03;;;3.10;100.00
14295;BME280;7231;59.370;18.016;2023-02-20T12:34:59;97926.88;;;3.05;100.00
14295;BME280;7231;59.370;18.016;2023-02-20T12:37:39;97958.97;;;3.19;100.00
14295;BME280;7231;59.370;18.016;2023-02-20T12:40:27;97944.31;;;3.21;100.00
14295;BME280;7231;59.370;18.016;2023-02-20T12:43:07;97935.69;;;3.22;100.00
14295;BME280;7231;59.370;18.016;2023-02-20T12:45:42;97941.69;;;3.18;100.00
14295;BME280;7231;59.370;18.016;2023-02-20T12:48:23;97935.69;;;3.20;100.00
14295;BME280;7231;59.370;18.016;2023-02-20T12:51:11;97952.19;;;3.30;100.00
14295;BME280;7231;59.370;18.016;2023-02-20T12:53:57;97948.00;;;3.44;100.00
14295;BME280;7231;59.370;18.016;2023-02-20T12:56:39;97942.56;;;4.15;100.00
14295;BME280;7231;59.370;18.016;2023-02-20T12:59:21;97888.25;;;4.38;100.00
14295;BME280;7231;59.370;18.016;2023-02-20T13:01:52;97958.47;;;4.73;100.00
14295;BME280;7231;59.370;18.016;2023-02-20T13:04:27;97929.81;;;4.49;100.00
14295;BME280;7231;59.370;18.016;2023-02-20T13:07:02;97954.00;;;4.48;100.00
14295;BME280;7231;59.370;18.016;2023-02-20T13:09:34;97963.38;;;4.28;100.00
14295;BME280;7231;59.370;18.016;2023-02-20T13:12:08;97941.56;;;3.97;100.00
14295;BME280;7231;59.370;18.016;2023-02-20T13:14:47;97938.81;;;3.77;100.00
14295;BME280;7231;59.370;18.016;2023-02-20T13:17:28;97928.31;;;3.60;100.00
14295;BME280;7231;59.370;18.016;2023-02-20T13:20:05;97973.31;;;3.73;100.00
14295;BME280;7231;59.370;18.016;2023-02-20T13:22:36;97986.19;;;3.65;100.00
14295;BME280;7231;59.370;18.016;2023-02-20T13:25:39;97999.09;;;3.59;100.00
14295;BME280;7231;59.370;18.016;2023-02-20T13:28:22;97994.72;;;3.53;100.00
14295;BME280;7231;59.370;18.016;2023-02-20T13:31:12;98003.31;;;3.49;100.00